sensor_id;sensor_type;location;lat;lon;timestamp;P1;durP1;ratioP1;P2;durP2;ratioP2
26038;SDS011;13815;52.374;4.882;2023-04-24T00:01:51;0.00;;;0.00;;
26038;SDS011;13815;52.374;4.882;2023-04-24T00:04:17;0.93;;;0.10;;
26038;SDS011;13815;52.374;4.882;2023-04-24T00:06:43;0.00;;;0.00;;
26038;SDS011;13815;52.374;4.882;2023-04-24T00:09:09;0.00;;;0.00;;
26038;SDS011;13815;52.374;4.882;2023-04-24T00:11:35;0.00;;;0.00;;
26038;SDS011;13815;52.374;4.882;2023-04-24T00:14:00;0.00;;;0.00;;
26038;SDS011;13815;52.374;4.882;2023-04-24T00:16:26;0.00;;;0.00;;
26038;SDS011;13815;52.374;4.882;2023-04-24T00:18:51;0.00;;;0.00;;
26038;SDS011;13815;52.374;4.882;2023-04-24T00:21:21;0.00;;;0.00;;
26038;SDS011;13815;52.374;4.882;2023-04-24T00:23:46;2.90;;;0.20;;
26038;SDS011;13815;52.374;4.882;2023-04-24T00:26:12;0.00;;;0.00;;
26038;SDS011;13815;52.374;4.882;2023-04-24T00:28:37;0.00;;;0.00;;
26038;SDS011;13815;52.374;4.882;2023-04-24T00:31:06;0.00;;;0.00;;
26038;SDS011;13815;52.374;4.882;2023-04-24T00:33:32;0.00;;;0.00;;
26038;SDS011;13815;52.374;4.882;2023-04-24T00:35:57;0.00;;;0.00;;
26038;SDS011;13815;52.374;4.882;2023-04-24T00:38:22;0.00;;;0.00;;
26038;SDS011;13815;52.374;4.882;2023-04-24T00:40:48;0.00;;;0.00;;
26038;SDS011;13815;52.374;4.882;2023-04-24T00:43:15;0.00;;;0.00;;
26038;SDS011;13815;52.374;4.882;2023-04-24T00:45:41;0.00;;;0.00;;
26038;SDS011;13815;52.374;4.882;2023-04-24T00:48:06;0.00;;;0.00;;
26038;SDS011;13815;52.374;4.882;2023-04-24T00:50:32;0.00;;;0.00;;
26038;SDS011;13815;52.374;4.882;2023-04-24T00:52:58;0.00;;;0.00;;
26038;SDS011;13815;52.374;4.882;2023-04-24T00:55:24;0.00;;;0.00;;
26038;SDS011;13815;52.374;4.882;2023-04-24T00:57:49;0.00;;;0.00;;
26038;SDS011;13815;52.374;4.882;2023-04-24T01:00:15;0.00;;;0.00;;
26038;SDS011;13815;52.374;4.882;2023-04-24T01:02:41;0.00;;;0.00;;
26038;SDS011;13815;52.374;4.882;2023-04-24T01:05:11;0.00;;;0.00;;
26038;SDS011;13815;52.374;4.882;2023-04-24T01:07:38;0.00;;;0.00;;
26038;SDS011;13815;52.374;4.882;2023-04-24T01:10:04;0.00;;;0.00;;
26038;SDS011;13815;52.374;4.882;2023-04-24T01:12:30;0.00;;;0.00;;
26038;SDS011;13815;52.374;4.882;2023-04-24T01:14:56;0.00;;;0.00;;
26038;SDS011;13815;52.374;4.882;2023-04-24T01:17:21;0.00;;;0.00;;
26038;SDS011;13815;52.374;4.882;2023-04-24T01:19:47;0.00;;;0.00;;
26038;SDS011;13815;52.374;4.882;2023-04-24T01:22:13;2.25;;;0.20;;
26038;SDS011;13815;52.374;4.882;2023-04-24T01:24:41;0.00;;;0.00;;
26038;SDS011;13815;52.374;4.882;2023-04-24T01:27:08;0.00;;;0.00;;
26038;SDS011;13815;52.374;4.882;2023-04-24T01:29:34;0.00;;;0.00;;
26038;SDS011;13815;52.374;4.882;2023-04-24T01:31:59;0.00;;;0.00;;
26038;SDS011;13815;52.374;4.882;2023-04-24T01:34:25;0.00;;;0.00;;
26038;SDS011;13815;52.374;4.882;2023-04-24T01:36:51;0.00;;;0.00;;
26038;SDS011;13815;52.374;4.882;2023-04-24T01:39:16;0.00;;;0.00;;
26038;SDS011;13815;52.374;4.882;2023-04-24T01:41:42;2.47;;;0.22;;
26038;SDS011;13815;52.374;4.882;2023-04-24T01:44:08;0.00;;;0.00;;
26038;SDS011;13815;52.374;4.882;2023-04-24T01:46:33;0.00;;;0.00;;
26038;SDS011;13815;52.374;4.882;2023-04-24T01:49:00;0.00;;;0.00;;
26038;SDS011;13815;52.374;4.882;2023-04-24T01:51:26;0.00;;;0.00;;
26038;SDS011;13815;52.374;4.882;2023-04-24T01:53:52;3.92;;;0.47;;
26038;SDS011;13815;52.374;4.882;2023-04-24T01:56:18;0.00;;;0.00;;
26038;SDS011;13815;52.374;4.882;2023-04-24T01:58:47;0.00;;;0.00;;
26038;SDS011;13815;52.374;4.882;2023-04-24T02:01:20;0.00;;;0.00;;
26038;SDS011;13815;52.374;4.882;2023-04-24T02:03:45;0.00;;;0.00;;
26038;SDS011;13815;52.374;4.882;2023-04-24T02:06:11;0.00;;;0.00;;
26038;SDS011;13815;52.374;4.882;2023-04-24T02:08:36;1.02;;;0.20;;
26038;SDS011;13815;52.374;4.882;2023-04-24T02:11:02;0.00;;;0.00;;
26038;SDS011;13815;52.374;4.882;2023-04-24T02:13:27;0.00;;;0.00;;
26038;SDS011;13815;52.374;4.882;2023-04-24T02:15:53;1.55;;;0.13;;
26038;SDS011;13815;52.374;4.882;2023-04-24T02:18:19;0.00;;;0.00;;
26038;SDS011;13815;52.374;4.882;2023-04-24T02:20:44;0.00;;;0.00;;
26038;SDS011;13815;52.374;4.882;2023-04-24T02:23:10;0.00;;;0.00;;
26038;SDS011;13815;52.374;4.882;2023-04-24T02:25:35;0.00;;;0.00;;
26038;SDS011;13815;52.374;4.882;2023-04-24T02:28:00;2.78;;;0.22;;
26038;SDS011;13815;52.374;4.882;2023-04-24T02:30:26;0.00;;;0.00;;
26038;SDS011;13815;52.374;4.882;2023-04-24T02:32:51;0.00;;;0.00;;
26038;SDS011;13815;52.374;4.882;2023-04-24T02:35:17;0.00;;;0.00;;
26038;SDS011;13815;52.374;4.882;2023-04-24T02:37:42;0.00;;;0.00;;
26038;SDS011;13815;52.374;4.882;2023-04-24T02:40:08;1.30;;;0.10;;
26038;SDS011;13815;52.374;4.882;2023-04-24T02:42:35;2.35;;;0.28;;
26038;SDS011;13815;52.374;4.882;2023-04-24T02:45:00;0.00;;;0.00;;
26038;SDS011;13815;52.374;4.882;2023-04-24T02:47:26;0.00;;;0.00;;
26038;SDS011;13815;52.374;4.882;2023-04-24T02:49:51;0.00;;;0.00;;
26038;SDS011;13815;52.374;4.882;2023-04-24T02:52:16;0.00;;;0.00;;
26038;SDS011;13815;52.374;4.882;2023-04-24T02:54:42;0.00;;;0.00;;
26038;SDS011;13815;52.374;4.882;2023-04-24T02:57:08;0.00;;;0.00;;
26038;SDS011;13815;52.374;4.882;2023-04-24T02:59:33;0.00;;;0.00;;
26038;SDS011;13815;52.374;4.882;2023-04-24T03:01:58;2.20;;;0.22;;
26038;SDS011;13815;52.374;4.882;2023-04-24T03:04:24;0.00;;;0.00;;
26038;SDS011;13815;52.374;4.882;2023-04-24T03:06:50;0.00;;;0.00;;
26038;SDS011;13815;52.374;4.882;2023-04-24T03:09:17;2.63;;;0.20;;
26038;SDS011;13815;52.374;4.882;2023-04-24T03:11:43;0.00;;;0.00;;
26038;SDS011;13815;52.374;4.882;2023-04-24T03:14:08;0.00;;;0.00;;
26038;SDS011;13815;52.374;4.882;2023-04-24T03:16:34;0.00;;;0.00;;
26038;SDS011;13815;52.374;4.882;2023-04-24T03:18:59;0.00;;;0.00;;
26038;SDS011;13815;52.374;4.882;2023-04-24T03:21:24;0.00;;;0.00;;
26038;SDS011;13815;52.374;4.882;2023-04-24T03:23:51;0.00;;;0.00;;
26038;SDS011;13815;52.374;4.882;2023-04-24T03:26:17;2.22;;;0.22;;
26038;SDS011;13815;52.374;4.882;2023-04-24T03:28:42;2.38;;;0.22;;
26038;SDS011;13815;52.374;4.882;2023-04-24T03:31:07;0.00;;;0.00;;
26038;SDS011;13815;52.374;4.882;2023-04-24T03:33:33;0.00;;;0.00;;
26038;SDS011;13815;52.374;4.882;2023-04-24T03:35:58;0.00;;;0.00;;
26038;SDS011;13815;52.374;4.882;2023-04-24T03:38:24;0.00;;;0.00;;
26038;SDS011;13815;52.374;4.882;2023-04-24T03:40:49;0.00;;;0.00;;
26038;SDS011;13815;52.374;4.882;2023-04-24T03:43:15;4.78;;;0.45;;
26038;SDS011;13815;52.374;4.882;2023-04-24T03:45:40;0.00;;;0.00;;
26038;SDS011;13815;52.374;4.882;2023-04-24T03:48:06;0.00;;;0.00;;
26038;SDS011;13815;52.374;4.882;2023-04-24T03:50:32;0.00;;;0.00;;
26038;SDS011;13815;52.374;4.882;2023-04-24T03:52:57;0.00;;;0.00;;
26038;SDS011;13815;52.374;4.882;2023-04-24T03:55:23;0.00;;;0.00;;
26038;SDS011;13815;52.374;4.882;2023-04-24T03:57:48;0.00;;;0.00;;
26038;SDS011;13815;52.374;4.882;2023-04-24T04:00:13;0.00;;;0.00;;
26038;SDS011;13815;52.374;4.882;2023-04-24T04:02:39;0.00;;;0.00;;
26038;SDS011;13815;52.374;4.882;2023-04-24T04:05:04;0.00;;;0.00;;
26038;SDS011;13815;52.374;4.882;2023-04-24T04:07:30;0.00;;;0.00;;
26038;SDS011;13815;52.374;4.882;2023-04-24T04:09:55;2.42;;;0.20;;
26038;SDS011;13815;52.374;4.882;2023-04-24T04:12:20;0.00;;;0.00;;
26038;SDS011;13815;52.374;4.882;2023-04-24T04:14:46;0.00;;;0.00;;
26038;SDS011;13815;52.374;4.882;2023-04-24T04:17:11;0.00;;;0.00;;
26038;SDS011;13815;52.374;4.882;2023-04-24T04:19:36;0.00;;;0.00;;
26038;SDS011;13815;52.374;4.882;2023-04-24T04:22:02;0.00;;;0.00;;
26038;SDS011;13815;52.374;4.882;2023-04-24T04:24:27;0.00;;;0.00;;
26038;SDS011;13815;52.374;4.882;2023-04-24T04:26:53;0.00;;;0.00;;
26038;SDS011;13815;52.374;4.882;2023-04-24T04:29:21;0.00;;;0.00;;
26038;SDS011;13815;52.374;4.882;2023-04-24T04:31:47;0.00;;;0.00;;
26038;SDS011;13815;52.374;4.882;2023-04-24T04:34:12;0.00;;;0.00;;
26038;SDS011;13815;52.374;4.882;2023-04-24T04:36:39;0.00;;;0.00;;
26038;SDS011;13815;52.374;4.882;2023-04-24T04:39:05;0.00;;;0.00;;
26038;SDS011;13815;52.374;4.882;2023-04-24T04:41:30;0.00;;;0.00;;
26038;SDS011;13815;52.374;4.882;2023-04-24T04:43:56;0.00;;;0.00;;
26038;SDS011;13815;52.374;4.882;2023-04-24T04:46:23;0.00;;;0.00;;
26038;SDS011;13815;52.374;4.882;2023-04-24T04:48:53;0.00;;;0.00;;
26038;SDS011;13815;52.374;4.882;2023-04-24T04:51:19;0.00;;;0.00;;
26038;SDS011;13815;52.374;4.882;2023-04-24T04:53:45;0.00;;;0.00;;
26038;SDS011;13815;52.374;4.882;2023-04-24T04:56:10;0.00;;;0.00;;
26038;SDS011;13815;52.374;4.882;2023-04-24T04:58:35;0.00;;;0.00;;
26038;SDS011;13815;52.374;4.882;2023-04-24T05:01:01;0.00;;;0.00;;
26038;SDS011;13815;52.374;4.882;2023-04-24T05:03:27;0.00;;;0.00;;
26038;SDS011;13815;52.374;4.882;2023-04-24T05:05:52;0.00;;;0.00;;
26038;SDS011;13815;52.374;4.882;2023-04-24T05:11:39;0.00;;;0.00;;
26038;SDS011;13815;52.374;4.882;2023-04-24T05:14:04;0.00;;;0.00;;
26038;SDS011;13815;52.374;4.882;2023-04-24T05:16:30;1.02;;;0.15;;
26038;SDS011;13815;52.374;4.882;2023-04-24T05:18:55;0.00;;;0.00;;
26038;SDS011;13815;52.374;4.882;2023-04-24T05:21:21;0.00;;;0.00;;
26038;SDS011;13815;52.374;4.882;2023-04-24T05:23:46;0.00;;;0.00;;
26038;SDS011;13815;52.374;4.882;2023-04-24T05:26:12;0.00;;;0.00;;
26038;SDS011;13815;52.374;4.882;2023-04-24T05:28:38;0.00;;;0.00;;
26038;SDS011;13815;52.374;4.882;2023-04-24T05:31:03;0.00;;;0.00;;
26038;SDS011;13815;52.374;4.882;2023-04-24T05:33:29;0.00;;;0.00;;
26038;SDS011;13815;52.374;4.882;2023-04-24T05:35:55;0.00;;;0.00;;
26038;SDS011;13815;52.374;4.882;2023-04-24T05:38:20;0.75;;;0.10;;
26038;SDS011;13815;52.374;4.882;2023-04-24T05:40:46;0.00;;;0.00;;
26038;SDS011;13815;52.374;4.882;2023-04-24T05:43:11;0.88;;;0.10;;
26038;SDS011;13815;52.374;4.882;2023-04-24T05:45:37;0.00;;;0.00;;
26038;SDS011;13815;52.374;4.882;2023-04-24T05:48:03;0.00;;;0.00;;
26038;SDS011;13815;52.374;4.882;2023-04-24T05:50:28;3.00;;;0.20;;
26038;SDS011;13815;52.374;4.882;2023-04-24T05:52:56;2.08;;;0.20;;
26038;SDS011;13815;52.374;4.882;2023-04-24T05:55:26;0.00;;;0.00;;
26038;SDS011;13815;52.374;4.882;2023-04-24T05:57:52;2.75;;;0.20;;
26038;SDS011;13815;52.374;4.882;2023-04-24T06:00:17;0.03;;;0.00;;
26038;SDS011;13815;52.374;4.882;2023-04-24T06:02:44;0.00;;;0.00;;
26038;SDS011;13815;52.374;4.882;2023-04-24T06:05:10;0.00;;;0.00;;
26038;SDS011;13815;52.374;4.882;2023-04-24T06:07:36;0.00;;;0.00;;
26038;SDS011;13815;52.374;4.882;2023-04-24T06:10:01;0.00;;;0.00;;
26038;SDS011;13815;52.374;4.882;2023-04-24T06:12:27;0.00;;;0.00;;
26038;SDS011;13815;52.374;4.882;2023-04-24T06:14:53;0.00;;;0.00;;
26038;SDS011;13815;52.374;4.882;2023-04-24T06:17:19;0.00;;;0.00;;
26038;SDS011;13815;52.374;4.882;2023-04-24T06:19:44;0.00;;;0.00;;
26038;SDS011;13815;52.374;4.882;2023-04-24T06:22:12;0.25;;;0.00;;
26038;SDS011;13815;52.374;4.882;2023-04-24T06:24:39;2.35;;;0.25;;
26038;SDS011;13815;52.374;4.882;2023-04-24T06:27:05;0.00;;;0.00;;
26038;SDS011;13815;52.374;4.882;2023-04-24T06:29:30;0.00;;;0.00;;
26038;SDS011;13815;52.374;4.882;2023-04-24T06:31:56;2.83;;;0.20;;
26038;SDS011;13815;52.374;4.882;2023-04-24T06:34:21;0.00;;;0.00;;
26038;SDS011;13815;52.374;4.882;2023-04-24T06:36:46;0.00;;;0.00;;
26038;SDS011;13815;52.374;4.882;2023-04-24T06:39:12;2.45;;;0.35;;
26038;SDS011;13815;52.374;4.882;2023-04-24T06:41:37;0.00;;;0.00;;
26038;SDS011;13815;52.374;4.882;2023-04-24T06:44:03;0.00;;;0.00;;
26038;SDS011;13815;52.374;4.882;2023-04-24T06:46:28;0.00;;;0.00;;
26038;SDS011;13815;52.374;4.882;2023-04-24T06:48:55;0.00;;;0.00;;
26038;SDS011;13815;52.374;4.882;2023-04-24T06:51:22;0.00;;;0.00;;
26038;SDS011;13815;52.374;4.882;2023-04-24T06:53:48;0.05;;;0.00;;
26038;SDS011;13815;52.374;4.882;2023-04-24T06:56:14;3.40;;;0.45;;
26038;SDS011;13815;52.374;4.882;2023-04-24T06:58:40;3.20;;;0.28;;
26038;SDS011;13815;52.374;4.882;2023-04-24T07:01:05;0.00;;;0.00;;
26038;SDS011;13815;52.374;4.882;2023-04-24T07:03:31;0.00;;;0.00;;
26038;SDS011;13815;52.374;4.882;2023-04-24T07:05:56;2.17;;;0.28;;
26038;SDS011;13815;52.374;4.882;2023-04-24T07:08:22;0.00;;;0.00;;
26038;SDS011;13815;52.374;4.882;2023-04-24T07:10:48;0.00;;;0.00;;
26038;SDS011;13815;52.374;4.882;2023-04-24T07:13:15;0.00;;;0.00;;
26038;SDS011;13815;52.374;4.882;2023-04-24T07:15:40;0.00;;;0.00;;
26038;SDS011;13815;52.374;4.882;2023-04-24T07:18:06;0.00;;;0.00;;
26038;SDS011;13815;52.374;4.882;2023-04-24T07:20:31;0.00;;;0.00;;
26038;SDS011;13815;52.374;4.882;2023-04-24T07:22:58;0.00;;;0.00;;
26038;SDS011;13815;52.374;4.882;2023-04-24T07:25:23;3.95;;;0.43;;
26038;SDS011;13815;52.374;4.882;2023-04-24T07:27:48;0.00;;;0.00;;
26038;SDS011;13815;52.374;4.882;2023-04-24T07:30:14;0.00;;;0.00;;
26038;SDS011;13815;52.374;4.882;2023-04-24T07:32:40;0.00;;;0.00;;
26038;SDS011;13815;52.374;4.882;2023-04-24T07:35:05;0.00;;;0.00;;
26038;SDS011;13815;52.374;4.882;2023-04-24T07:37:31;0.00;;;0.00;;
26038;SDS011;13815;52.374;4.882;2023-04-24T07:39:56;0.00;;;0.00;;
26038;SDS011;13815;52.374;4.882;2023-04-24T07:42:22;1.75;;;0.25;;
26038;SDS011;13815;52.374;4.882;2023-04-24T07:44:47;0.00;;;0.00;;
26038;SDS011;13815;52.374;4.882;2023-04-24T07:47:13;0.00;;;0.00;;
26038;SDS011;13815;52.374;4.882;2023-04-24T07:49:41;0.00;;;0.00;;
26038;SDS011;13815;52.374;4.882;2023-04-24T07:52:08;2.90;;;0.20;;
26038;SDS011;13815;52.374;4.882;2023-04-24T07:54:33;0.00;;;0.00;;
26038;SDS011;13815;52.374;4.882;2023-04-24T07:56:58;0.00;;;0.00;;
26038;SDS011;13815;52.374;4.882;2023-04-24T07:59:25;2.83;;;0.30;;
26038;SDS011;13815;52.374;4.882;2023-04-24T08:01:50;0.00;;;0.00;;
26038;SDS011;13815;52.374;4.882;2023-04-24T08:04:15;0.00;;;0.00;;
26038;SDS011;13815;52.374;4.882;2023-04-24T08:06:44;3.63;;;0.40;;
26038;SDS011;13815;52.374;4.882;2023-04-24T08:09:09;0.20;;;0.20;;
26038;SDS011;13815;52.374;4.882;2023-04-24T08:14:41;0.17;;;0.17;;
26038;SDS011;13815;52.374;4.882;2023-04-24T08:17:06;0.10;;;0.10;;
26038;SDS011;13815;52.374;4.882;2023-04-24T08:19:31;0.20;;;0.20;;
26038;SDS011;13815;52.374;4.882;2023-04-24T08:21:57;3.10;;;0.38;;
26038;SDS011;13815;52.374;4.882;2023-04-24T08:24:24;2.33;;;0.40;;
26038;SDS011;13815;52.374;4.882;2023-04-24T08:26:50;0.10;;;0.10;;
26038;SDS011;13815;52.374;4.882;2023-04-24T08:29:16;0.20;;;0.20;;
26038;SDS011;13815;52.374;4.882;2023-04-24T08:31:41;0.20;;;0.20;;
26038;SDS011;13815;52.374;4.882;2023-04-24T08:34:07;0.20;;;0.20;;
26038;SDS011;13815;52.374;4.882;2023-04-24T08:36:32;2.83;;;0.50;;
26038;SDS011;13815;52.374;4.882;2023-04-24T08:38:58;0.20;;;0.20;;
26038;SDS011;13815;52.374;4.882;2023-04-24T08:41:23;0.30;;;0.30;;
26038;SDS011;13815;52.374;4.882;2023-04-24T08:43:51;0.20;;;0.20;;
26038;SDS011;13815;52.374;4.882;2023-04-24T08:46:16;0.30;;;0.30;;
26038;SDS011;13815;52.374;4.882;2023-04-24T08:48:43;0.20;;;0.20;;
26038;SDS011;13815;52.374;4.882;2023-04-24T08:51:09;0.30;;;0.30;;
26038;SDS011;13815;52.374;4.882;2023-04-24T08:53:35;0.40;;;0.40;;
26038;SDS011;13815;52.374;4.882;2023-04-24T08:56:01;3.30;;;0.60;;
26038;SDS011;13815;52.374;4.882;2023-04-24T08:58:26;0.30;;;0.30;;
26038;SDS011;13815;52.374;4.882;2023-04-24T09:00:56;0.30;;;0.30;;
26038;SDS011;13815;52.374;4.882;2023-04-24T09:03:21;0.30;;;0.30;;
26038;SDS011;13815;52.374;4.882;2023-04-24T09:05:48;0.30;;;0.30;;
26038;SDS011;13815;52.374;4.882;2023-04-24T09:08:16;0.30;;;0.30;;
26038;SDS011;13815;52.374;4.882;2023-04-24T09:10:43;2.17;;;0.50;;
26038;SDS011;13815;52.374;4.882;2023-04-24T09:13:08;0.30;;;0.30;;
26038;SDS011;13815;52.374;4.882;2023-04-24T09:15:35;2.72;;;0.60;;
26038;SDS011;13815;52.374;4.882;2023-04-24T09:18:01;0.38;;;0.38;;
26038;SDS011;13815;52.374;4.882;2023-04-24T09:20:27;0.32;;;0.32;;
26038;SDS011;13815;52.374;4.882;2023-04-24T09:22:56;0.30;;;0.30;;
26038;SDS011;13815;52.374;4.882;2023-04-24T09:25:22;0.30;;;0.30;;
26038;SDS011;13815;52.374;4.882;2023-04-24T09:28:00;2.85;;;0.82;;
26038;SDS011;13815;52.374;4.882;2023-04-24T09:30:27;0.40;;;0.40;;
26038;SDS011;13815;52.374;4.882;2023-04-24T09:33:09;0.40;;;0.40;;
26038;SDS011;13815;52.374;4.882;2023-04-24T09:35:40;3.17;;;0.77;;
26038;SDS011;13815;52.374;4.882;2023-04-24T09:38:15;3.10;;;0.68;;
26038;SDS011;13815;52.374;4.882;2023-04-24T09:40:40;0.40;;;0.40;;
26038;SDS011;13815;52.374;4.882;2023-04-24T09:46:08;0.60;;;0.60;;
26038;SDS011;13815;52.374;4.882;2023-04-24T09:48:35;3.60;;;0.90;;
26038;SDS011;13815;52.374;4.882;2023-04-24T09:51:05;0.80;;;0.80;;
26038;SDS011;13815;52.374;4.882;2023-04-24T09:53:44;0.90;;;0.90;;
26038;SDS011;13815;52.374;4.882;2023-04-24T09:56:13;1.30;;;1.30;;
26038;SDS011;13815;52.374;4.882;2023-04-24T09:58:38;1.50;;;1.50;;
26038;SDS011;13815;52.374;4.882;2023-04-24T10:01:04;3.42;;;1.83;;
26038;SDS011;13815;52.374;4.882;2023-04-24T10:03:33;6.72;;;2.53;;
26038;SDS011;13815;52.374;4.882;2023-04-24T10:05:59;1.52;;;1.52;;
26038;SDS011;13815;52.374;4.882;2023-04-24T10:08:25;1.45;;;1.45;;
26038;SDS011;13815;52.374;4.882;2023-04-24T10:10:53;1.60;;;1.60;;
26038;SDS011;13815;52.374;4.882;2023-04-24T10:13:18;2.20;;;1.92;;
26038;SDS011;13815;52.374;4.882;2023-04-24T10:15:46;1.90;;;1.90;;
26038;SDS011;13815;52.374;4.882;2023-04-24T10:18:12;2.00;;;2.00;;
26038;SDS011;13815;52.374;4.882;2023-04-24T10:20:39;1.80;;;1.80;;
26038;SDS011;13815;52.374;4.882;2023-04-24T10:23:05;1.77;;;1.77;;
26038;SDS011;13815;52.374;4.882;2023-04-24T10:25:31;1.50;;;1.50;;
26038;SDS011;13815;52.374;4.882;2023-04-24T10:27:58;1.10;;;1.10;;
26038;SDS011;13815;52.374;4.882;2023-04-24T10:30:32;1.00;;;1.00;;
26038;SDS011;13815;52.374;4.882;2023-04-24T10:33:01;3.70;;;1.30;;
26038;SDS011;13815;52.374;4.882;2023-04-24T10:35:29;1.20;;;1.02;;
26038;SDS011;13815;52.374;4.882;2023-04-24T10:38:05;1.08;;;1.08;;
26038;SDS011;13815;52.374;4.882;2023-04-24T10:40:34;1.85;;;1.10;;
26038;SDS011;13815;52.374;4.882;2023-04-24T10:43:02;1.15;;;1.15;;
26038;SDS011;13815;52.374;4.882;2023-04-24T10:45:31;2.33;;;2.13;;
26038;SDS011;13815;52.374;4.882;2023-04-24T10:48:01;3.35;;;3.25;;
26038;SDS011;13815;52.374;4.882;2023-04-24T10:50:28;3.13;;;3.03;;
26038;SDS011;13815;52.374;4.882;2023-04-24T10:53:04;4.00;;;3.90;;
26038;SDS011;13815;52.374;4.882;2023-04-24T10:55:57;4.00;;;3.90;;
26038;SDS011;13815;52.374;4.882;2023-04-24T10:58:24;5.00;;;4.60;;
26038;SDS011;13815;52.374;4.882;2023-04-24T11:00:56;5.00;;;4.90;;
26038;SDS011;13815;52.374;4.882;2023-04-24T11:03:26;5.50;;;5.40;;
26038;SDS011;13815;52.374;4.882;2023-04-24T11:05:55;5.40;;;5.30;;
26038;SDS011;13815;52.374;4.882;2023-04-24T11:08:23;6.40;;;5.90;;
26038;SDS011;13815;52.374;4.882;2023-04-24T11:14:13;7.30;;;7.10;;
26038;SDS011;13815;52.374;4.882;2023-04-24T11:16:52;7.97;;;7.57;;
26038;SDS011;13815;52.374;4.882;2023-04-24T11:19:26;7.55;;;7.35;;
26038;SDS011;13815;52.374;4.882;2023-04-24T11:32:59;18.40;;;17.00;;
26038;SDS011;13815;52.374;4.882;2023-04-24T11:34:59;21.45;;;19.65;;
26038;SDS011;13815;52.374;4.882;2023-04-24T11:37:40;22.52;;;20.63;;
26038;SDS011;13815;52.374;4.882;2023-04-24T11:40:06;23.20;;;21.00;;
26038;SDS011;13815;52.374;4.882;2023-04-24T11:42:40;23.15;;;20.85;;
26038;SDS011;13815;52.374;4.882;2023-04-24T11:47:33;27.60;;;22.52;;
26038;SDS011;13815;52.374;4.882;2023-04-24T11:49:59;24.63;;;22.08;;
26038;SDS011;13815;52.374;4.882;2023-04-24T11:52:25;25.65;;;22.95;;
26038;SDS011;13815;52.374;4.882;2023-04-24T11:54:54;25.52;;;22.73;;
26038;SDS011;13815;52.374;4.882;2023-04-24T11:57:20;25.05;;;22.55;;
26038;SDS011;13815;52.374;4.882;2023-04-24T11:59:46;25.65;;;23.05;;
26038;SDS011;13815;52.374;4.882;2023-04-24T12:02:45;27.10;;;24.20;;
26038;SDS011;13815;52.374;4.882;2023-04-24T12:05:04;23.67;;;21.48;;
26038;SDS011;13815;52.374;4.882;2023-04-24T12:07:30;21.60;;;19.80;;
26038;SDS011;13815;52.374;4.882;2023-04-24T12:10:07;21.80;;;20.00;;
26038;SDS011;13815;52.374;4.882;2023-04-24T12:12:34;21.98;;;20.08;;
26038;SDS011;13815;52.374;4.882;2023-04-24T12:14:59;22.15;;;20.20;;
26038;SDS011;13815;52.374;4.882;2023-04-24T12:17:32;21.05;;;19.25;;
26038;SDS011;13815;52.374;4.882;2023-04-24T12:22:24;23.48;;;21.27;;
26038;SDS011;13815;52.374;4.882;2023-04-24T12:24:57;23.52;;;21.23;;
26038;SDS011;13815;52.374;4.882;2023-04-24T12:27:23;23.77;;;21.58;;
26038;SDS011;13815;52.374;4.882;2023-04-24T12:29:58;23.20;;;21.10;;
26038;SDS011;13815;52.374;4.882;2023-04-24T12:32:29;23.52;;;21.23;;
26038;SDS011;13815;52.374;4.882;2023-04-24T12:34:54;24.73;;;22.13;;
26038;SDS011;13815;52.374;4.882;2023-04-24T12:37:21;23.67;;;21.27;;
26038;SDS011;13815;52.374;4.882;2023-04-24T12:40:07;24.00;;;21.60;;
26038;SDS011;13815;52.374;4.882;2023-04-24T12:42:44;25.60;;;22.73;;
26038;SDS011;13815;52.374;4.882;2023-04-24T12:45:10;24.95;;;22.33;;
26038;SDS011;13815;52.374;4.882;2023-04-24T12:47:37;24.83;;;22.05;;
26038;SDS011;13815;52.374;4.882;2023-04-24T12:50:04;24.65;;;22.15;;
26038;SDS011;13815;52.374;4.882;2023-04-24T12:52:31;24.05;;;21.55;;
26038;SDS011;13815;52.374;4.882;2023-04-24T12:54:59;25.10;;;22.40;;
26038;SDS011;13815;52.374;4.882;2023-04-24T12:57:26;26.05;;;23.25;;
26038;SDS011;13815;52.374;4.882;2023-04-24T12:59:56;25.73;;;23.02;;
26038;SDS011;13815;52.374;4.882;2023-04-24T13:02:22;26.40;;;23.60;;
26038;SDS011;13815;52.374;4.882;2023-04-24T13:04:49;23.95;;;21.55;;
26038;SDS011;13815;52.374;4.882;2023-04-24T13:07:14;24.10;;;21.60;;
26038;SDS011;13815;52.374;4.882;2023-04-24T13:09:40;21.73;;;19.73;;
26038;SDS011;13815;52.374;4.882;2023-04-24T13:12:07;24.33;;;21.83;;
26038;SDS011;13815;52.374;4.882;2023-04-24T13:14:33;26.23;;;22.90;;
26038;SDS011;13815;52.374;4.882;2023-04-24T13:16:59;25.75;;;22.42;;
26038;SDS011;13815;52.374;4.882;2023-04-24T13:19:25;24.63;;;21.90;;
26038;SDS011;13815;52.374;4.882;2023-04-24T13:21:51;26.42;;;22.15;;
26038;SDS011;13815;52.374;4.882;2023-04-24T13:24:20;22.80;;;20.50;;
26038;SDS011;13815;52.374;4.882;2023-04-24T13:26:46;23.70;;;21.30;;
26038;SDS011;13815;52.374;4.882;2023-04-24T13:29:11;24.13;;;21.63;;
26038;SDS011;13815;52.374;4.882;2023-04-24T13:31:36;22.42;;;20.13;;
26038;SDS011;13815;52.374;4.882;2023-04-24T13:34:02;23.00;;;20.60;;
26038;SDS011;13815;52.374;4.882;2023-04-24T13:36:28;23.00;;;20.70;;
26038;SDS011;13815;52.374;4.882;2023-04-24T13:38:55;22.30;;;20.00;;
26038;SDS011;13815;52.374;4.882;2023-04-24T13:41:20;22.27;;;19.88;;
26038;SDS011;13815;52.374;4.882;2023-04-24T13:43:45;24.63;;;22.02;;
26038;SDS011;13815;52.374;4.882;2023-04-24T13:46:11;26.67;;;24.02;;
26038;SDS011;13815;52.374;4.882;2023-04-24T13:48:36;27.08;;;24.17;;
26038;SDS011;13815;52.374;4.882;2023-04-24T13:51:05;25.42;;;22.73;;
26038;SDS011;13815;52.374;4.882;2023-04-24T13:53:30;28.65;;;24.90;;
26038;SDS011;13815;52.374;4.882;2023-04-24T13:55:57;30.90;;;25.83;;
26038;SDS011;13815;52.374;4.882;2023-04-24T13:58:22;30.67;;;25.50;;
26038;SDS011;13815;52.374;4.882;2023-04-24T14:00:48;32.25;;;26.13;;
26038;SDS011;13815;52.374;4.882;2023-04-24T14:03:13;35.72;;;28.10;;
26038;SDS011;13815;52.374;4.882;2023-04-24T14:05:38;33.15;;;26.83;;
26038;SDS011;13815;52.374;4.882;2023-04-24T14:08:04;34.03;;;26.80;;
26038;SDS011;13815;52.374;4.882;2023-04-24T14:10:30;36.45;;;28.60;;
26038;SDS011;13815;52.374;4.882;2023-04-24T14:12:56;34.35;;;26.75;;
26038;SDS011;13815;52.374;4.882;2023-04-24T14:15:22;34.40;;;27.20;;
26038;SDS011;13815;52.374;4.882;2023-04-24T14:17:48;33.90;;;26.92;;
26038;SDS011;13815;52.374;4.882;2023-04-24T14:20:14;32.65;;;26.20;;
26038;SDS011;13815;52.374;4.882;2023-04-24T14:22:40;35.22;;;27.70;;
26038;SDS011;13815;52.374;4.882;2023-04-24T14:25:08;35.40;;;28.60;;
26038;SDS011;13815;52.374;4.882;2023-04-24T14:27:34;32.40;;;26.80;;
26038;SDS011;13815;52.374;4.882;2023-04-24T14:29:59;35.20;;;28.38;;
26038;SDS011;13815;52.374;4.882;2023-04-24T14:32:25;34.10;;;27.80;;
26038;SDS011;13815;52.374;4.882;2023-04-24T14:34:52;36.60;;;29.25;;
26038;SDS011;13815;52.374;4.882;2023-04-24T14:37:17;36.85;;;29.75;;
26038;SDS011;13815;52.374;4.882;2023-04-24T14:39:42;33.85;;;27.15;;
26038;SDS011;13815;52.374;4.882;2023-04-24T14:42:08;33.45;;;28.65;;
26038;SDS011;13815;52.374;4.882;2023-04-24T14:44:35;34.33;;;26.80;;
26038;SDS011;13815;52.374;4.882;2023-04-24T14:47:00;35.08;;;28.52;;
26038;SDS011;13815;52.374;4.882;2023-04-24T14:49:25;33.70;;;27.02;;
26038;SDS011;13815;52.374;4.882;2023-04-24T14:51:51;34.70;;;27.60;;
26038;SDS011;13815;52.374;4.882;2023-04-24T14:54:16;36.40;;;28.77;;
26038;SDS011;13815;52.374;4.882;2023-04-24T14:56:41;35.85;;;29.83;;
26038;SDS011;13815;52.374;4.882;2023-04-24T14:59:08;37.03;;;30.15;;
26038;SDS011;13815;52.374;4.882;2023-04-24T15:01:34;36.08;;;31.00;;
26038;SDS011;13815;52.374;4.882;2023-04-24T15:03:59;35.25;;;30.73;;
26038;SDS011;13815;52.374;4.882;2023-04-24T15:06:24;35.78;;;29.42;;